Time;durP1;ratioP1;P1;durP2;ratioP2;P2;SDS_P1;SDS_P2;PMS_P1;PMS_P2;Temp;Humidity;BMP_temperature;BMP_pressure;BME280_temperature;BME280_humidity;BME280_pressure;Samples;Min_cycle;Max_cycle;Signal;HPM_P1;HPM_P2
2022/04/26 03:37:11;;;;;;;19.63;6.95;;;;;;;;;;5047897;28;20680;-67
2022/04/26 03:39:37;;;;;;;20.63;6.70;;;;;;;;;;5032455;28;20048;-66
2022/04/26 03:42:03;;;;;;;14.43;5.85;;;;;;;;;;5001660;28;20049;-66
2022/04/26 03:44:30;;;;;;;17.75;6.72;;;;;;;;;;5013562;28;20049;-66
2022/04/26 03:46:56;;;;;;;15.30;6.55;;;6.80;99.90;;;;;;5017671;28;20033;-66
2022/04/26 03:49:22;;;;;;;15.85;6.35;;;6.60;99.90;;;;;;5023034;28;20518;-66
2022/04/26 03:51:48;;;;;;;15.32;6.60;;;;;;;;;;5035421;28;20047;-66
2022/04/26 03:54:14;;;;;;;18.55;5.88;;;;;;;;;;5023290;28;20037;-67
2022/04/26 03:56:40;;;;;;;14.80;6.78;;;;;;;;;;5035124;28;20491;-66
2022/04/26 03:59:06;;;;;;;22.65;8.60;;;;;;;;;;5023599;28;20041;-65
2022/04/26 04:01:32;;;;;;;18.15;6.50;;;;;;;;;;5020773;28;20125;-66
2022/04/26 04:03:58;;;;;;;15.50;6.13;;;;;;;;;;5023851;28;20048;-66
2022/04/26 04:06:24;;;;;;;13.57;6.55;;;6.40;99.90;;;;;;5007875;28;20475;-66
2022/04/26 04:08:50;;;;;;;13.23;6.43;;;;;;;;;;5023684;28;20049;-66
2022/04/26 04:11:16;;;;;;;23.85;9.13;;;;;;;;;;5042624;28;20042;-65
2022/04/26 04:13:42;;;;;;;16.17;6.32;;;;;;;;;;5041264;28;20030;-66
2022/04/26 04:16:07;;;;;;;13.23;5.97;;;;;;;;;;5018809;28;20506;-66
2022/04/26 04:21:18;;;;;;;12.82;7.10;;;;;;;;;;5029883;28;20053;-66
2022/04/26 04:23:44;;;;;;;20.67;6.80;;;6.60;99.90;;;;;;5028180;28;20143;-66
2022/04/26 04:26:10;;;;;;;16.70;6.57;;;;;;;;;;5045181;28;20095;-66
2022/04/26 04:28:36;;;;;;;13.73;6.45;;;;;;;;;;5028923;28;20479;-66
2022/04/26 04:31:02;;;;;;;16.60;5.72;;;;;;;;;;5036189;28;20044;-67
2022/04/26 04:33:28;;;;;;;16.02;6.40;;;6.60;99.90;;;;;;5029318;28;20064;-66
2022/04/26 04:35:54;;;;;;;14.02;5.63;;;;;;;;;;5029674;28;20456;-67
2022/04/26 04:38:20;;;;;;;17.40;6.05;;;;;;;;;;5018570;28;20537;-66
2022/04/26 04:40:46;;;;;;;14.10;5.72;;;;;;;;;;5032689;28;20045;-66
2022/04/26 04:43:12;;;;;;;27.17;7.57;;;;;;;;;;5027335;28;20037;-66
2022/04/26 04:45:39;;;;;;;13.00;5.70;;;6.80;99.90;;;;;;5019694;28;20561;-66
2022/04/26 04:48:05;;;;;;;15.32;6.10;;;;;;;;;;5028211;28;20088;-67
2022/04/26 04:50:32;;;;;;;15.98;5.40;;;7.00;99.90;;;;;;5008105;28;20029;-67
2022/04/26 04:52:58;;;;;;;18.75;6.07;;;;;;;;;;5020791;28;20079;-66
2022/04/26 04:55:24;;;;;;;17.70;5.55;;;;;;;;;;5024306;28;20072;-66
2022/04/26 04:57:50;;;;;;;19.90;5.82;;;;;;;;;;5030461;28;20033;-66
2022/04/26 05:00:17;;;;;;;16.25;5.50;;;;;;;;;;5022607;28;20063;-66
2022/04/26 05:02:43;;;;;;;17.17;5.78;;;;;;;;;;5042266;28;20033;-67
2022/04/26 05:05:09;;;;;;;13.40;5.95;;;;;;;;;;5044497;28;20052;-66
2022/04/26 05:07:36;;;;;;;13.32;5.05;;;;;;;;;;5041208;28;20123;-66
2022/04/26 05:10:02;;;;;;;14.65;6.65;;;;;;;;;;5023784;28;20152;-67
2022/04/26 05:12:28;;;;;;;18.30;5.55;;;;;;;;;;5005489;28;20033;-67
2022/04/26 05:14:54;;;;;;;11.23;5.63;;;;;;;;;;5010093;28;20043;-66
2022/04/26 05:17:20;;;;;;;12.13;5.40;;;;;;;;;;5020339;28;20056;-66
2022/04/26 05:19:46;;;;;;;12.57;5.70;;;;;;;;;;5042200;28;20048;-66
2022/04/26 05:22:12;;;;;;;33.22;7.03;;;;;;;;;;5044155;28;20371;-67
2022/04/26 05:24:56;;;;;;;11.43;5.50;;;;;;;;;;5112669;22;20036;-73
2022/04/26 05:27:31;;;;;;;16.38;5.72;;;7.40;99.90;;;;;;5085020;28;20582;-73
2022/04/26 05:29:57;;;;;;;13.65;5.78;;;;;;;;;;5098368;28;20047;-73
2022/04/26 05:32:25;;;;;;;19.35;6.10;;;;;;;;;;5101744;28;20028;-73
2022/04/26 05:35:01;;;;;;;17.23;5.30;;;7.40;99.90;;;;;;5105137;28;20086;-73
2022/04/26 05:37:29;;;;;;;15.50;5.45;;;7.50;99.90;;;;;;5107646;28;20085;-73
2022/04/26 05:39:55;;;;;;;16.23;5.88;;;;;;;;;;5099406;27;20234;-73
2022/04/26 05:42:22;;;;;;;17.77;6.35;;;7.60;99.90;;;;;;5091754;28;20039;-73
2022/04/26 05:44:48;;;;;;;14.38;5.63;;;;;;;;;;5099210;28;20035;-73
2022/04/26 05:47:13;;;;;;;12.68;5.60;;;7.80;99.90;;;;;;5108931;28;20040;-73
2022/04/26 05:49:39;;;;;;;11.93;5.35;;;;;;;;;;5100305;28;20081;-73
2022/04/26 05:52:06;;;;;;;23.80;6.72;;;;;;;;;;5101847;28;20092;-73
2022/04/26 05:54:32;;;;;;;16.85;5.35;;;8.00;99.90;;;;;;5100419;28;20036;-73
2022/04/26 05:56:58;;;;;;;24.10;6.55;;;8.00;99.90;;;;;;5101250;28;20052;-73
2022/04/26 05:59:24;;;;;;;14.48;6.07;;;7.90;99.90;;;;;;5104441;28;20044;-73
2022/04/26 06:01:51;;;;;;;13.13;5.95;;;8.20;99.90;;;;;;5100694;28;20528;-73
2022/04/26 06:04:17;;;;;;;17.35;7.10;;;;;;;;;;5090449;28;20403;-74
2022/04/26 06:06:43;;;;;;;11.32;4.63;;;;;;;;;;5074039;28;20455;-73
2022/04/26 06:09:09;;;;;;;16.08;6.22;;;8.50;99.90;;;;;;5090832;28;20036;-72
2022/04/26 06:11:34;;;;;;;11.35;5.40;;;8.50;99.90;;;;;;5094519;28;20047;-73
2022/04/26 06:14:02;;;;;;;11.18;4.60;;;;;;;;;;5091988;28;20031;-74
2022/04/26 06:16:28;;;;;;;15.60;4.85;;;;;;;;;;5101879;28;20040;-73
2022/04/26 06:18:55;;;;;;;12.05;6.05;;;;;;;;;;5108055;28;20489;-72
2022/04/26 06:21:20;;;;;;;12.07;6.65;;;8.60;99.90;;;;;;5114584;28;20071;-72
2022/04/26 06:23:46;;;;;;;12.40;4.97;;;;;;;;;;5095268;28;20119;-72
2022/04/26 06:26:12;;;;;;;13.13;5.22;;;;;;;;;;5097883;28;20131;-73
2022/04/26 06:28:38;;;;;;;11.07;5.28;;;;;;;;;;5096301;28;20405;-72
2022/04/26 06:31:05;;;;;;;10.80;5.68;;;;;;;;;;5090172;28;20036;-73
2022/04/26 06:33:31;;;;;;;11.30;6.10;;;;;;;;;;5090361;28;20032;-72
2022/04/26 06:35:57;;;;;;;13.18;5.80;;;8.60;99.90;;;;;;5097885;28;20091;-72
2022/04/26 06:38:22;;;;;;;18.90;6.63;;;8.50;99.90;;;;;;5100335;28;20032;-73
2022/04/26 06:40:49;;;;;;;12.30;5.60;;;;;;;;;;5093368;28;20038;-73
2022/04/26 06:43:15;;;;;;;10.88;5.35;;;;;;;;;;5099897;28;20046;-73
2022/04/26 06:45:41;;;;;;;12.43;6.03;;;8.60;99.90;;;;;;5079784;28;20035;-73
2022/04/26 06:48:08;;;;;;;9.98;5.50;;;;;;;;;;5100332;28;20088;-74
2022/04/26 06:50:34;;;;;;;6.38;4.68;;;;;;;;;;5103723;28;20035;-73
2022/04/26 06:53:00;;;;;;;12.80;5.30;;;;;;;;;;5097351;28;20509;-73
2022/04/26 06:55:25;;;;;;;12.82;5.88;;;8.70;99.90;;;;;;5097589;28;20105;-73
2022/04/26 06:57:51;;;;;;;16.17;5.43;;;;;;;;;;5095729;28;20047;-73
2022/04/26 07:00:17;;;;;;;11.68;5.05;;;;;;;;;;5100032;28;20043;-73
2022/04/26 07:02:43;;;;;;;12.07;5.15;;;;;;;;;;5105072;28;20036;-73
2022/04/26 07:05:11;;;;;;;19.48;5.25;;;9.50;99.90;;;;;;5103095;28;20039;-73
2022/04/26 07:07:40;;;;;;;9.13;4.57;;;9.60;99.90;;;;;;5091772;28;20032;-73
2022/04/26 07:10:07;;;;;;;9.50;4.15;;;9.10;99.90;;;;;;5093070;28;20398;-73
2022/04/26 07:12:33;;;;;;;10.30;3.53;;;;;;;;;;5094116;28;20043;-73
2022/04/26 07:14:59;;;;;;;13.45;4.07;;;;;;;;;;5103440;28;20425;-73
2022/04/26 07:17:25;;;;;;;8.63;4.03;;;;;;;;;;5106112;28;20455;-73
2022/04/26 07:19:51;;;;;;;7.85;3.70;;;9.10;99.90;;;;;;5092181;28;20549;-73
2022/04/26 07:22:16;;;;;;;8.68;4.20;;;9.40;99.90;;;;;;5097426;28;20134;-73
2022/04/26 07:24:44;;;;;;;16.55;4.28;;;;;;;;;;5103007;28;20035;-74
2022/04/26 07:27:10;;;;;;;10.82;3.47;;;9.60;99.90;;;;;;5092856;28;20143;-74
2022/04/26 07:29:40;;;;;;;8.60;4.38;;;9.80;99.90;;;;;;5091295;28;20065;-73
2022/04/26 07:32:07;;;;;;;7.93;3.40;;;9.70;99.90;;;;;;5088761;28;20084;-73
2022/04/26 07:34:33;;;;;;;9.13;3.80;;;;;;;;;;5108839;28;20036;-73
2022/04/26 07:37:00;;;;;;;11.15;3.78;;;;;;;;;;5096706;28;20059;-73
2022/04/26 07:39:29;;;;;;;7.82;3.80;;;9.40;99.90;;;;;;5099271;28;20047;-73
2022/04/26 07:41:56;;;;;;;8.18;3.03;;;9.10;99.90;;;;;;5097877;28;20071;-73
2022/04/26 07:44:22;;;;;;;12.00;3.38;;;;;;;;;;5083633;28;20161;-72
2022/04/26 07:46:49;;;;;;;7.28;3.92;;;9.70;99.90;;;;;;5091594;28;20123;-73
2022/04/26 07:49:16;;;;;;;10.30;3.30;;;9.90;99.90;;;;;;5102758;28;20051;-72
2022/04/26 07:51:43;;;;;;;5.32;3.13;;;9.80;99.90;;;;;;5101642;28;20401;-73
2022/04/26 07:54:11;;;;;;;7.45;3.97;;;9.90;99.90;;;;;;5094317;28;20524;-73
2022/04/26 07:56:38;;;;;;;5.95;3.33;;;9.90;99.90;;;;;;5102078;28;20043;-72
2022/04/26 07:59:04;;;;;;;6.32;3.33;;;9.90;99.90;;;;;;5098272;28;20039;-72
2022/04/26 08:01:30;;;;;;;7.95;3.50;;;;;;;;;;5094741;28;20424;-72
2022/04/26 08:03:56;;;;;;;11.40;4.10;;;10.80;99.90;;;;;;5099023;28;20078;-73
2022/04/26 08:06:22;;;;;;;6.82;3.10;;;10.60;99.90;;;;;;5100264;28;20465;-73
2022/04/26 08:08:47;;;;;;;9.85;3.28;;;10.90;99.90;;;;;;5091148;28;20119;-73
2022/04/26 08:11:13;;;;;;;9.80;3.88;;;;;;;;;;5097795;28;20118;-73
2022/04/26 08:13:40;;;;;;;8.15;3.65;;;11.00;99.90;;;;;;5100594;28;20036;-73
2022/04/26 08:16:06;;;;;;;12.70;3.60;;;11.00;99.90;;;;;;5095782;28;20044;-73
2022/04/26 08:18:32;;;;;;;5.68;3.22;;;11.30;99.90;;;;;;5095936;28;20040;-73
2022/04/26 08:20:58;;;;;;;7.05;2.97;;;11.40;99.90;;;;;;5104922;28;20497;-73
2022/04/26 08:23:24;;;;;;;5.93;3.45;;;11.30;99.90;;;;;;5093984;28;20081;-72
2022/04/26 08:28:34;;;;;;;6.18;2.63;;;;;;;;;;5101370;28;20040;-73
2022/04/26 08:31:01;;;;;;;6.03;3.05;;;;;;;;;;5095957;28;20490;-73
2022/04/26 08:33:28;;;;;;;6.72;3.13;;;11.80;99.90;;;;;;5092102;28;20040;-73
2022/04/26 08:35:54;;;;;;;8.32;2.67;;;11.90;99.90;;;;;;5096133;28;20519;-72
2022/04/26 08:38:20;;;;;;;8.02;2.83;;;11.40;99.90;;;;;;5105956;28;20040;-73
2022/04/26 08:40:46;;;;;;;7.38;3.10;;;;;;;;;;5092410;28;20024;-73
2022/04/26 08:43:12;;;;;;;9.35;3.47;;;11.10;99.90;;;;;;5104324;28;20486;-73
2022/04/26 08:45:38;;;;;;;10.15;2.80;;;11.20;99.90;;;;;;5107789;28;20048;-73
2022/04/26 08:50:59;;;;;;;6.47;3.47;;;10.50;99.90;;;;;;5097364;28;20114;-73
2022/04/26 08:53:26;;;;;;;4.35;2.88;;;10.30;99.90;;;;;;5088294;28;20043;-73
2022/04/26 08:55:57;;;;;;;5.18;2.50;;;10.40;99.90;;;;;;5091323;28;20073;-71
2022/04/26 08:58:25;;;;;;;6.65;2.70;;;10.30;99.90;;;;;;5089996;28;20044;-72
2022/04/26 09:01:10;;;;;;;9.90;3.60;;;;;;;;;;5088182;28;20074;-72
2022/04/26 09:03:54;;;;;;;5.22;2.65;;;10.70;99.90;;;;;;5093787;28;20079;-71
2022/04/26 09:06:32;;;;;;;7.28;2.70;;;10.60;99.90;;;;;;5093255;28;20047;-72
2022/04/26 09:09:12;;;;;;;7.40;2.60;;;10.90;99.90;;;;;;5075975;28;20039;-72
2022/04/26 09:11:38;;;;;;;10.05;2.90;;;11.10;99.90;;;;;;5094681;28;20036;-72
2022/04/26 09:14:11;;;;;;;4.57;2.70;;;;;;;;;;5093163;28;20119;-72
2022/04/26 09:16:37;;;;;;;6.47;2.90;;;;;;;;;;5107210;28;20054;-72
2022/04/26 09:19:07;;;;;;;9.73;2.95;;;11.30;99.90;;;;;;5112626;28;20036;-72
2022/04/26 09:21:35;;;;;;;10.77;2.75;;;11.20;99.90;;;;;;5113603;28;20447;-72
2022/04/26 09:24:03;;;;;;;7.68;2.65;;;11.30;99.90;;;;;;5112900;28;20038;-72
2022/04/26 09:26:37;;;;;;;6.78;2.60;;;11.60;99.90;;;;;;5112884;28;20036;-72
2022/04/26 09:29:08;;;;;;;7.18;2.75;;;12.00;99.90;;;;;;5113660;28;20111;-72
2022/04/26 09:31:37;;;;;;;5.63;3.13;;;12.60;99.90;;;;;;5114707;28;20405;-72
2022/04/26 09:34:13;;;;;;;12.30;2.80;;;12.40;99.90;;;;;;5114691;28;20027;-72
2022/04/26 09:36:43;;;;;;;5.93;2.75;;;12.60;99.90;;;;;;5114503;28;20067;-72
2022/04/26 09:39:09;;;;;;;6.72;2.55;;;;;;;;;;5113953;28;20456;-72
2022/04/26 09:41:36;;;;;;;6.38;3.13;;;;;;;;;;5113332;28;20079;-72
2022/04/26 09:44:03;;;;;;;6.90;2.95;;;11.80;99.90;;;;;;5113120;28;20046;-72
2022/04/26 09:46:43;;;;;;;10.68;3.22;;;11.70;99.70;;;;;;5112768;28;20069;-72
2022/04/26 09:49:11;;;;;;;11.27;3.15;;;11.80;99.90;;;;;;5112191;28;20427;-72
2022/04/26 09:51:37;;;;;;;15.70;4.10;;;12.10;99.90;;;;;;5112336;28;20031;-72
2022/04/26 09:54:06;;;;;;;6.45;2.47;;;12.60;99.40;;;;;;5113033;28;20040;-72
2022/04/26 09:56:33;;;;;;;6.75;2.42;;;12.70;99.30;;;;;;5114024;28;20039;-72
2022/04/26 09:59:00;;;;;;;8.23;2.40;;;12.90;99.90;;;;;;5112998;28;20081;-72
2022/04/26 10:01:35;;;;;;;6.85;2.65;;;12.30;99.40;;;;;;5113164;28;20036;-71
2022/04/26 10:04:06;;;;;;;3.58;2.58;;;12.20;99.90;;;;;;5066417;28;20040;-72
2022/04/26 10:06:40;;;;;;;5.32;2.97;;;12.20;99.80;;;;;;5076445;28;20047;-71
2022/04/26 10:09:09;;;;;;;5.55;2.47;;;12.10;99.80;;;;;;5098955;28;20042;-69
2022/04/26 10:11:35;;;;;;;7.47;2.90;;;;;;;;;;5113666;28;20050;-71
2022/04/26 10:14:04;;;;;;;6.53;2.97;;;11.60;99.90;;;;;;5112525;28;20042;-72
2022/04/26 10:16:31;;;;;;;4.75;2.47;;;12.20;99.50;;;;;;5113397;28;20114;-71
2022/04/26 10:19:04;;;;;;;5.82;2.47;;;;;;;;;;5111807;28;20085;-71
2022/04/26 10:21:29;;;;;;;8.10;3.10;;;12.20;99.90;;;;;;5113725;28;20051;-71
2022/04/26 10:24:01;;;;;;;3.60;2.30;;;;;;;;;;5112074;28;20157;-71
2022/04/26 10:26:27;;;;;;;5.70;2.35;;;;;;;;;;5111978;28;20043;-72
2022/04/26 10:28:54;;;;;;;6.32;3.10;;;12.80;99.90;;;;;;5111564;28;20040;-71
2022/04/26 10:31:37;;;;;;;5.50;2.38;;;12.80;99.20;;;;;;5111676;28;20047;-71
2022/04/26 10:34:27;;;;;;;10.82;2.50;;;12.80;98.30;;;;;;5095014;28;20055;-70
2022/04/26 10:37:06;;;;;;;5.93;2.47;;;13.10;99.90;;;;;;5111739;28;20861;-71
2022/04/26 10:39:42;;;;;;;8.13;2.72;;;12.90;99.70;;;;;;5111850;28;20039;-71
2022/04/26 10:42:18;;;;;;;6.55;2.25;;;12.70;98.40;;;;;;5107261;28;20086;-71
2022/04/26 10:44:48;;;;;;;5.82;2.53;;;12.40;98.60;;;;;;5117216;28;20425;-71
2022/04/26 10:47:18;;;;;;;5.63;2.72;;;12.40;99.90;;;;;;5122522;28;20039;-73
2022/04/26 10:49:49;;;;;;;6.60;2.38;;;12.60;99.80;;;;;;5111725;28;20066;-72
2022/04/26 10:52:19;;;;;;;4.25;2.58;;;;;;;;;;5110758;28;20028;-71
2022/04/26 10:55:02;;;;;;;5.20;2.53;;;12.60;98.60;;;;;;5085534;28;20475;-71
2022/04/26 10:57:28;;;;;;;7.03;2.50;;;;;;;;;;5088647;28;20086;-71
2022/04/26 11:00:01;;;;;;;6.25;2.40;;;12.30;98.50;;;;;;5088173;28;20044;-71
2022/04/26 11:02:31;;;;;;;5.57;2.60;;;12.00;99.20;;;;;;5088258;28;20104;-71
2022/04/26 11:05:08;;;;;;;6.13;2.53;;;12.80;99.00;;;;;;5084535;28;20150;-72
2022/04/26 11:07:35;;;;;;;4.57;2.80;;;13.30;98.50;;;;;;5087019;28;20115;-71
2022/04/26 11:10:01;;;;;;;4.50;2.15;;;;;;;;;;5079603;28;20119;-71
2022/04/26 11:12:29;;;;;;;7.50;2.65;;;12.60;98.20;;;;;;5062261;28;20448;-70
2022/04/26 11:15:02;;;;;;;5.88;2.60;;;12.30;98.60;;;;;;5066581;28;20063;-70
2022/04/26 11:17:31;;;;;;;5.88;2.53;;;12.40;99.20;;;;;;5067902;28;20032;-71
2022/04/26 11:19:59;;;;;;;5.07;2.63;;;12.40;98.50;;;;;;5078467;28;20127;-70
2022/04/26 11:22:26;;;;;;;4.18;2.50;;;13.60;98.70;;;;;;5087213;28;20509;-72
2022/04/26 11:28:26;;;;;;;7.50;2.80;;;;;;;;;;5114693;22;20073;-66
2022/04/26 11:30:45;;;;;;;11.65;3.00;;;;;;;;;;4988794;28;20563;-69
2022/04/26 11:33:24;;;;;;;5.78;2.67;;;13.20;98.00;;;;;;5007867;28;20077;-68
2022/04/26 11:35:55;;;;;;;4.22;2.45;;;13.50;97.60;;;;;;5008984;28;20044;-68
2022/04/26 11:38:21;;;;;;;5.50;2.78;;;13.60;98.90;;;;;;5009989;28;20065;-68
2022/04/26 11:40:56;;;;;;;3.85;2.22;;;13.90;98.20;;;;;;5008921;28;20045;-68
2022/04/26 11:43:23;;;;;;;4.53;2.50;;;13.90;97.30;;;;;;4992796;28;20059;-68
2022/04/26 11:45:54;;;;;;;4.65;2.40;;;13.50;98.40;;;;;;4993194;28;20495;-68
2022/04/26 11:48:22;;;;;;;8.38;2.97;;;12.80;96.90;;;;;;5011232;28;20117;-69
2022/04/26 11:50:49;;;;;;;3.35;2.15;;;12.70;96.40;;;;;;5010291;28;20041;-68
2022/04/26 11:53:19;;;;;;;5.53;2.75;;;13.20;98.60;;;;;;5012480;28;20785;-68
2022/04/26 11:55:56;;;;;;;4.63;2.47;;;13.00;97.80;;;;;;5011856;28;20049;-68
2022/04/26 11:58:42;;;;;;;5.95;2.60;;;13.00;96.90;;;;;;4995730;28;20043;-68
2022/04/26 12:01:15;;;;;;;4.20;2.13;;;13.40;98.30;;;;;;5021983;28;20064;-68
2022/04/26 12:03:49;;;;;;;9.63;4.40;;;13.90;96.80;;;;;;5012302;28;20049;-68
2022/04/26 12:06:20;;;;;;;3.78;2.80;;;14.30;98.30;;;;;;5018344;28;20041;-68
2022/04/26 12:08:53;;;;;;;5.22;2.65;;;13.60;96.50;;;;;;5031689;28;20033;-68
2022/04/26 12:11:24;;;;;;;5.88;3.05;;;13.70;96.60;;;;;;5038599;28;20040;-68
2022/04/26 12:14:11;;;;;;;3.40;2.35;;;13.20;96.70;;;;;;5014747;28;20038;-68
2022/04/26 12:16:44;;;;;;;5.90;2.00;;;13.40;96.40;;;;;;5009879;28;20144;-68
2022/04/26 12:19:10;;;;;;;4.85;2.50;;;14.00;97.50;;;;;;5011215;28;20049;-68
2022/04/26 12:21:56;;;;;;;3.40;2.30;;;13.30;96.60;;;;;;5026340;28;20423;-69
2022/04/26 12:24:30;;;;;;;4.63;2.63;;;13.60;98.20;;;;;;4995451;28;20052;-68
2022/04/26 12:26:59;;;;;;;7.18;2.90;;;13.50;97.60;;;;;;4994055;28;20041;-69
2022/04/26 12:29:29;;;;;;;4.45;2.40;;;13.70;96.80;;;;;;5016832;28;20049;-68
2022/04/26 12:31:56;;;;;;;5.13;2.67;;;13.50;97.40;;;;;;5011389;28;20045;-68
2022/04/26 12:34:29;;;;;;;6.18;2.58;;;14.20;97.90;;;;;;5010768;28;20503;-68
2022/04/26 12:36:58;;;;;;;7.00;3.45;;;14.20;97.70;;;;;;5017706;28;20041;-68
2022/04/26 12:39:52;;;;;;;4.00;2.92;;;14.30;97.20;;;;;;5031651;28;20049;-68
2022/04/26 12:42:29;;;;;;;5.70;2.97;;;14.60;96.70;;;;;;4998990;28;20053;-68
2022/04/26 12:44:56;;;;;;;4.40;2.35;;;14.60;97.60;;;;;;4997800;28;20052;-68
2022/04/26 12:52:59;;;;;;;8.40;3.70;;;15.30;96.80;;;;;;5014325;28;20136;-68
2022/04/26 12:55:34;;;;;;;8.75;2.72;;;15.40;96.90;;;;;;5032619;28;20033;-68
2022/04/26 12:58:33;;;;;;;3.75;2.42;;;15.60;95.80;;;;;;5011747;28;20041;-68
2022/04/26 13:00:59;;;;;;;2.40;2.10;;;15.40;95.60;;;;;;5017880;28;20060;-69
2022/04/26 13:03:24;;;;;;;7.10;2.83;;;15.30;96.50;;;;;;4996902;28;20389;-68
2022/04/26 13:06:03;;;;;;;9.32;4.28;;;14.50;96.40;;;;;;5035714;28;20036;-69
2022/04/26 13:08:28;;;;;;;6.88;3.63;;;14.40;96.80;;;;;;5000645;28;20154;-69
2022/04/26 13:10:54;;;;;;;10.50;3.72;;;14.40;96.70;;;;;;5031073;28;20543;-68
2022/04/26 13:13:20;;;;;;;4.78;2.58;;;14.10;96.80;;;;;;5039200;28;20029;-68
2022/04/26 13:15:46;;;;;;;8.18;3.67;;;14.00;97.00;;;;;;5019899;28;20090;-68
2022/04/26 13:18:15;;;;;;;7.63;5.60;;;14.30;97.30;;;;;;5043743;28;20144;-68
2022/04/26 13:20:43;;;;;;;7.68;3.80;;;14.70;97.10;;;;;;5010255;28;20111;-69
2022/04/26 13:23:09;;;;;;;6.78;2.50;;;14.70;96.90;;;;;;5031101;28;20045;-69
2022/04/26 13:25:34;;;;;;;9.38;4.75;;;13.90;97.00;;;;;;5014909;28;20040;-69
2022/04/26 13:28:03;;;;;;;3.85;2.90;;;14.10;97.30;;;;;;5013177;28;20120;-68
2022/04/26 13:30:29;;;;;;;5.43;2.97;;;13.50;98.10;;;;;;5031785;28;20069;-68
2022/04/26 13:32:54;;;;;;;6.40;2.67;;;13.30;98.40;;;;;;5014159;28;20138;-68
2022/04/26 13:35:21;;;;;;;4.68;2.42;;;;;;;;;;5013708;28;20037;-68
2022/04/26 13:37:46;;;;;;;4.10;2.33;;;13.20;99.40;;;;;;5014905;28;20049;-68
2022/04/26 13:40:13;;;;;;;4.97;2.55;;;13.40;98.40;;;;;;5012178;28;20041;-68
2022/04/26 13:42:38;;;;;;;6.25;2.95;;;12.80;98.30;;;;;;5014402;28;20040;-68
2022/04/26 13:45:06;;;;;;;7.53;2.75;;;12.60;99.10;;;;;;5014749;28;20045;-68
2022/04/26 13:47:33;;;;;;;5.90;2.80;;;12.70;98.30;;;;;;5016146;28;20110;-69
2022/04/26 13:49:58;;;;;;;4.13;2.90;;;12.80;99.50;;;;;;4997428;28;20045;-68
2022/04/26 13:52:24;;;;;;;9.25;3.75;;;12.80;98.40;;;;;;5030783;28;20561;-68
2022/04/26 13:54:50;;;;;;;6.43;2.78;;;12.80;99.00;;;;;;5013324;28;20704;-68
2022/04/26 13:57:16;;;;;;;5.75;2.65;;;12.70;98.00;;;;;;5032389;28;20041;-68
2022/04/26 13:59:43;;;;;;;5.90;2.60;;;;;;;;;;5013099;28;20048;-68
2022/04/26 14:02:08;;;;;;;4.93;2.47;;;13.20;97.70;;;;;;5013307;28;20049;-68
2022/04/26 14:04:34;;;;;;;8.65;2.80;;;13.40;98.90;;;;;;5013509;28;20160;-69
2022/04/26 14:07:00;;;;;;;8.20;3.40;;;13.40;98.20;;;;;;5031365;28;20088;-68
2022/04/26 14:09:27;;;;;;;4.75;2.85;;;13.60;97.80;;;;;;5031418;28;20397;-68
2022/04/26 14:11:55;;;;;;;6.95;2.88;;;12.90;99.50;;;;;;5030560;28;20107;-68
2022/04/26 14:22:34;;;;;;;7.57;3.00;;;12.70;99.90;;;;;;5025405;28;20151;-69
2022/04/26 14:25:04;;;;;;;11.68;3.30;;;12.60;99.00;;;;;;5012723;28;20507;-70
2022/04/26 14:27:32;;;;;;;8.00;2.97;;;12.90;99.90;;;;;;5012980;28;20040;-69
2022/04/26 14:29:59;;;;;;;5.78;2.92;;;13.20;99.90;;;;;;5030375;28;20033;-69
2022/04/26 14:32:24;;;;;;;6.95;2.60;;;13.20;99.70;;;;;;5012256;28;20504;-69
2022/04/26 14:34:50;;;;;;;9.25;3.13;;;13.30;99.00;;;;;;5013477;28;20120;-69
2022/04/26 14:37:16;;;;;;;6.78;2.80;;;12.60;99.30;;;;;;5029473;28;20037;-69
2022/04/26 14:39:42;;;;;;;6.00;3.20;;;12.60;99.50;;;;;;5029702;28;20037;-68
2022/04/26 14:42:09;;;;;;;8.93;4.07;;;13.30;99.30;;;;;;5012218;28;20041;-69
2022/04/26 14:44:35;;;;;;;8.73;2.95;;;13.50;99.30;;;;;;5012149;28;20124;-69
2022/04/26 14:47:02;;;;;;;6.38;2.78;;;12.00;98.00;;;;;;5013643;28;20033;-68
2022/04/26 14:49:28;;;;;;;12.30;3.00;;;13.70;98.40;;;;;;5011004;28;20038;-69
2022/04/26 14:51:54;;;;;;;7.13;2.33;;;14.00;98.70;;;;;;5012964;28;20104;-69
2022/04/26 14:54:20;;;;;;;9.65;2.92;;;13.50;98.90;;;;;;5011953;28;20087;-69
2022/04/26 14:56:47;;;;;;;6.35;2.97;;;13.20;97.90;;;;;;5014680;28;20502;-69
2022/04/26 14:59:13;;;;;;;9.25;3.05;;;13.60;99.00;;;;;;5021209;28;20037;-69
2022/04/26 15:01:46;;;;;;;8.20;2.50;;;13.30;98.90;;;;;;5006147;28;20049;-68
2022/04/26 15:04:12;;;;;;;3.15;2.53;;;13.20;98.10;;;;;;5031613;28;20069;-69
2022/04/26 15:06:38;;;;;;;5.18;2.65;;;13.40;98.20;;;;;;4998457;28;20036;-69
2022/04/26 15:11:48;;;;;;;5.78;2.63;;;13.30;97.40;;;;;;5014424;28;20068;-69
2022/04/26 15:16:57;;;;;;;5.43;2.60;;;13.00;98.40;;;;;;5012291;28;20052;-69
2022/04/26 15:19:24;;;;;;;9.05;2.30;;;13.00;98.80;;;;;;5011480;28;20037;-69
2022/04/26 15:21:49;;;;;;;6.10;2.90;;;13.30;99.00;;;;;;5012206;28;20080;-69
2022/04/26 15:24:15;;;;;;;6.32;2.70;;;13.40;98.00;;;;;;5012679;28;20094;-69
2022/04/26 15:26:41;;;;;;;5.30;2.40;;;13.20;97.80;;;;;;5028608;28;20462;-68
2022/04/26 15:29:07;;;;;;;4.15;2.55;;;13.00;98.30;;;;;;5016752;28;20042;-67
2022/04/26 15:31:33;;;;;;;3.95;2.03;;;13.20;97.50;;;;;;5018748;28;20420;-69
2022/04/26 15:33:59;;;;;;;4.55;2.20;;;12.70;97.70;;;;;;5012287;28;20044;-68
2022/04/26 15:36:24;;;;;;;3.80;2.25;;;12.90;97.90;;;;;;5030175;28;20046;-68
2022/04/26 15:38:57;;;;;;;4.90;2.53;;;12.90;98.80;;;;;;5029229;28;20496;-70
2022/04/26 15:41:24;;;;;;;5.32;2.67;;;12.80;98.90;;;;;;4991917;28;20148;-69
2022/04/26 15:43:50;;;;;;;5.75;2.53;;;12.80;98.10;;;;;;5010668;28;20079;-69
2022/04/26 15:46:15;;;;;;;5.53;2.60;;;13.00;99.20;;;;;;5010368;28;20064;-69
2022/04/26 15:48:47;;;;;;;4.95;2.72;;;13.10;98.30;;;;;;5011559;28;20132;-69
2022/04/26 15:51:13;;;;;;;7.07;2.58;;;12.40;98.60;;;;;;5011211;28;20041;-69
2022/04/26 15:53:39;;;;;;;8.98;2.90;;;12.50;98.90;;;;;;5012059;28;20075;-70
2022/04/26 15:56:04;;;;;;;4.47;2.85;;;12.50;98.90;;;;;;5015992;28;20041;-70
2022/04/26 15:58:30;;;;;;;4.00;2.60;;;12.80;98.70;;;;;;5006116;28;20067;-69
2022/04/26 16:00:57;;;;;;;4.85;2.75;;;;;;;;;;5001541;28;20570;-68
2022/04/26 16:03:23;;;;;;;7.15;2.63;;;12.70;98.80;;;;;;5025357;28;20396;-69
2022/04/26 16:05:48;;;;;;;9.38;2.72;;;12.90;98.80;;;;;;5025011;28;20044;-70
2022/04/26 16:08:14;;;;;;;5.85;2.53;;;12.90;96.60;;;;;;5016770;28;20076;-70
2022/04/26 16:21:53;;;;;;;8.43;2.42;;;13.60;96.10;;;;;;5004845;28;20160;-70
2022/04/26 16:24:19;;;;;;;7.30;2.45;;;13.30;97.70;;;;;;5011456;28;20065;-69
2022/04/26 16:26:44;;;;;;;3.45;2.00;;;13.30;96.70;;;;;;5012327;28;20034;-70
2022/04/26 16:29:10;;;;;;;4.50;2.50;;;13.40;96.90;;;;;;4993552;28;20045;-70
2022/04/26 16:31:38;;;;;;;7.47;2.30;;;12.50;96.70;;;;;;5012397;28;20045;-70
2022/04/26 16:34:05;;;;;;;4.05;1.90;;;12.70;98.30;;;;;;5011871;28;20053;-70
2022/04/26 16:36:30;;;;;;;6.47;2.72;;;12.50;98.00;;;;;;5010831;28;20044;-70
2022/04/26 16:38:58;;;;;;;8.45;2.58;;;12.70;97.10;;;;;;4995711;28;20080;-69
2022/04/26 16:41:24;;;;;;;7.38;2.17;;;12.20;97.20;;;;;;4995413;28;20034;-70
2022/04/26 16:43:49;;;;;;;7.68;2.90;;;11.90;98.40;;;;;;5011516;28;20428;-68
2022/04/26 16:46:22;;;;;;;6.90;2.95;;;11.60;98.70;;;;;;5029484;28;20042;-69
2022/04/26 16:48:48;;;;;;;3.70;2.10;;;;;;;;;;5010714;28;20430;-67
2022/04/26 16:51:19;;;;;;;6.43;2.10;;;11.90;98.90;;;;;;5028185;28;20041;-69
2022/04/26 16:53:46;;;;;;;4.65;2.30;;;11.70;98.50;;;;;;5011935;28;20076;-69
2022/04/26 16:56:12;;;;;;;4.35;1.77;;;11.70;98.50;;;;;;4995490;28;20512;-69
2022/04/26 16:58:38;;;;;;;7.20;2.03;;;11.70;98.90;;;;;;5012622;28;20037;-70
2022/04/26 17:01:04;;;;;;;6.25;2.38;;;11.60;97.90;;;;;;5011018;28;20083;-69
2022/04/26 17:03:30;;;;;;;5.18;2.17;;;11.60;98.20;;;;;;4996819;28;20101;-69
2022/04/26 17:05:56;;;;;;;7.68;2.20;;;12.00;99.30;;;;;;4995310;28;20132;-69
2022/04/26 17:08:22;;;;;;;6.18;2.03;;;11.80;98.50;;;;;;5029590;28;20057;-69
2022/04/26 17:10:48;;;;;;;4.55;2.40;;;11.80;97.60;;;;;;5009984;28;20053;-69
2022/04/26 17:13:15;;;;;;;6.05;2.15;;;12.20;98.90;;;;;;5010243;28;20044;-69
2022/04/26 17:15:41;;;;;;;7.28;2.33;;;;;;;;;;5011753;28;20033;-70
2022/04/26 17:18:07;;;;;;;8.52;2.50;;;11.30;99.20;;;;;;5027646;28;20049;-68
2022/04/26 17:20:34;;;;;;;9.05;2.20;;;;;;;;;;5010183;28;20030;-70
2022/04/26 17:23:03;;;;;;;5.75;2.47;;;11.10;99.70;;;;;;5031890;28;20037;-70
2022/04/26 17:25:30;;;;;;;5.28;2.08;;;10.90;98.70;;;;;;4996922;28;20037;-70
2022/04/26 17:27:57;;;;;;;7.55;2.75;;;11.10;99.90;;;;;;4997068;28;20045;-70
2022/04/26 17:30:23;;;;;;;4.40;2.28;;;11.30;99.90;;;;;;5066785;22;20040;-73
2022/04/26 17:32:49;;;;;;;6.13;2.33;;;;;;;;;;5051890;28;20130;-73
2022/04/26 17:35:16;;;;;;;8.63;2.53;;;11.20;99.10;;;;;;5051511;28;20039;-73
2022/04/26 17:37:43;;;;;;;5.28;2.50;;;10.80;99.40;;;;;;5050781;28;20051;-72